createdAt,value
2023-09-10T00:01:28.957Z,10.43
2023-09-10T00:04:33.891Z,12.15
2023-09-10T00:07:36.264Z,10.20
2023-09-10T00:10:39.787Z,11.52
2023-09-10T00:13:42.126Z,10.17
2023-09-10T00:16:44.441Z,11.65
2023-09-10T00:19:47.685Z,12.48
2023-09-10T00:22:50.042Z,9.85
2023-09-10T00:25:55.503Z,9.02
2023-09-10T00:28:57.894Z,8.83
2023-09-10T00:32:00.338Z,10.05
2023-09-10T00:35:02.859Z,9.98
2023-09-10T00:38:05.394Z,10.80
2023-09-10T00:41:09.029Z,10.45
2023-09-10T00:44:11.465Z,10.33
2023-09-10T00:47:14.484Z,10.73
2023-09-10T00:50:18.012Z,20.90
2023-09-10T00:53:21.121Z,18.30
2023-09-10T00:56:25.617Z,9.38
2023-09-10T00:59:30.034Z,12.13
2023-09-10T01:02:32.527Z,12.25
2023-09-10T01:05:36.880Z,8.95
2023-09-10T01:08:39.318Z,11.75
2023-09-10T01:12:10.521Z,12.13
2023-09-10T01:15:38.106Z,11.37
2023-09-10T01:18:50.398Z,10.77
2023-09-10T01:22:04.092Z,10.15
2023-09-10T01:25:07.394Z,9.77
2023-09-10T01:28:09.736Z,9.45
2023-09-10T01:31:12.159Z,10.43
2023-09-10T01:34:17.796Z,9.52
2023-09-10T01:37:27.480Z,12.57
2023-09-10T01:40:36.149Z,11.68
2023-09-10T01:43:39.008Z,12.30
2023-09-10T01:46:43.032Z,22.37
2023-09-10T01:49:46.052Z,28.20
2023-09-10T01:52:48.383Z,22.42
2023-09-10T01:55:50.762Z,16.50
2023-09-10T01:58:53.231Z,20.17
2023-09-10T02:01:55.777Z,24.67
2023-09-10T02:04:59.033Z,19.92
2023-09-10T02:08:01.391Z,14.68
2023-09-10T02:11:10.637Z,13.63
2023-09-10T02:14:13.049Z,31.10
2023-09-10T02:17:21.450Z,50.67
2023-09-10T02:20:24.652Z,33.63
2023-09-10T02:23:27.170Z,38.60
2023-09-10T02:26:29.515Z,21.17
2023-09-10T02:29:31.796Z,19.60
2023-09-10T02:32:34.501Z,23.27
2023-09-10T02:35:36.793Z,43.65
2023-09-10T02:38:39.501Z,43.92
2023-09-10T02:41:42.090Z,41.97
2023-09-10T02:44:44.965Z,40.25
2023-09-10T02:47:47.277Z,33.23
2023-09-10T02:50:49.603Z,29.95
2023-09-10T02:53:51.853Z,25.52
2023-09-10T02:56:54.110Z,24.95
2023-09-10T02:59:56.494Z,17.00
2023-09-10T03:02:59.328Z,18.53
2023-09-10T03:06:02.129Z,19.88
2023-09-10T03:09:04.857Z,23.55
2023-09-10T03:12:26.632Z,43.75
2023-09-10T03:15:31.004Z,32.38
2023-09-10T03:18:33.509Z,38.07
2023-09-10T03:21:39.447Z,31.95
2023-09-10T03:24:43.127Z,26.55
2023-09-10T03:27:45.438Z,24.52
2023-09-10T03:30:47.722Z,19.05
2023-09-10T03:33:50.388Z,15.77
2023-09-10T03:36:52.782Z,14.88
2023-09-10T03:39:55.042Z,15.15
2023-09-10T03:42:57.350Z,15.75
2023-09-10T03:45:59.683Z,18.05
2023-09-10T03:49:01.992Z,17.90
2023-09-10T03:52:18.456Z,28.15
2023-09-10T03:55:20.819Z,22.00
2023-09-10T03:58:23.152Z,23.30
2023-09-10T04:01:25.595Z,19.60
2023-09-10T04:04:29.012Z,10.27
2023-09-10T04:07:31.743Z,9.77
2023-09-10T04:10:34.142Z,10.23
2023-09-10T04:13:38.472Z,12.35
2023-09-10T04:16:40.846Z,16.58
2023-09-10T04:19:43.321Z,11.40
2023-09-10T04:22:45.857Z,10.82
2023-09-10T04:25:51.390Z,9.68
2023-09-10T04:28:53.790Z,9.75
2023-09-10T04:31:56.116Z,9.82
2023-09-10T04:34:58.637Z,11.63
2023-09-10T04:38:00.963Z,11.60
2023-09-10T04:41:03.601Z,9.05
2023-09-10T04:44:07.342Z,10.65
2023-09-10T04:47:10.624Z,9.95
2023-09-10T04:50:13.996Z,12.27
2023-09-10T04:53:17.904Z,15.13
2023-09-10T04:56:20.376Z,11.75
2023-09-10T04:59:23.139Z,12.60
2023-09-10T05:02:25.933Z,9.30
2023-09-10T05:05:28.353Z,12.00
2023-09-10T05:08:30.665Z,9.15
2023-09-10T05:11:33.030Z,9.15
2023-09-10T05:14:35.294Z,9.55
2023-09-10T05:17:38.784Z,10.23
2023-09-10T05:20:42.008Z,10.57
2023-09-10T05:23:44.610Z,10.93
2023-09-10T05:26:47.035Z,10.65
2023-09-10T05:29:49.313Z,11.63
2023-09-10T05:32:51.733Z,10.57
2023-09-10T05:35:58.850Z,11.23
2023-09-10T05:39:03.685Z,11.43
2023-09-10T05:42:06.110Z,11.85
2023-09-10T05:45:08.745Z,13.82
2023-09-10T05:48:11.082Z,14.50
2023-09-10T05:51:13.470Z,11.70
2023-09-10T05:54:17.809Z,11.18
2023-09-10T05:57:21.390Z,12.48
2023-09-10T06:00:24.032Z,12.45
2023-09-10T06:03:26.875Z,11.32
2023-09-10T06:06:29.341Z,11.80
2023-09-10T06:09:32.871Z,9.98
2023-09-10T06:12:36.467Z,11.48
2023-09-10T06:15:39.927Z,11.93
2023-09-10T06:18:42.267Z,11.68
2023-09-10T06:21:44.770Z,11.87
2023-09-10T06:24:47.585Z,10.50
2023-09-10T06:27:49.959Z,9.18
2023-09-10T06:30:52.917Z,10.00
2023-09-10T06:33:55.721Z,9.50
2023-09-10T06:36:59.276Z,10.67
2023-09-10T06:40:02.653Z,8.48
2023-09-10T06:43:05.594Z,10.88
2023-09-10T06:46:15.176Z,9.13
2023-09-10T06:49:17.457Z,8.98
2023-09-10T06:52:19.739Z,8.53
2023-09-10T06:55:22.038Z,8.05
2023-09-10T06:58:24.570Z,8.45
2023-09-10T07:01:26.880Z,8.65
2023-09-10T07:04:29.322Z,10.40
2023-09-10T07:07:31.608Z,8.47
2023-09-10T07:10:34.584Z,8.50
2023-09-10T07:13:39.753Z,9.80
2023-09-10T07:16:42.047Z,8.88
2023-09-10T07:19:44.511Z,8.35
2023-09-10T07:22:46.842Z,7.97
2023-09-10T07:25:49.169Z,10.02
2023-09-10T07:28:51.897Z,7.68
2023-09-10T07:31:54.753Z,7.72
2023-09-10T07:34:57.102Z,8.00
2023-09-10T07:37:59.425Z,6.90
2023-09-10T07:41:01.797Z,8.10
2023-09-10T07:44:04.418Z,7.95
2023-09-10T07:47:06.807Z,7.90
2023-09-10T07:50:10.026Z,8.93
2023-09-10T07:53:12.383Z,8.50
2023-09-10T07:56:14.716Z,8.32
2023-09-10T07:59:17.034Z,7.95
2023-09-10T08:02:19.389Z,7.90
2023-09-10T08:05:21.769Z,7.57
2023-09-10T08:08:24.298Z,8.63
2023-09-10T08:11:26.643Z,9.38
2023-09-10T08:14:29.031Z,8.15
2023-09-10T08:17:31.564Z,7.72
2023-09-10T08:20:33.877Z,8.52
2023-09-10T08:23:36.136Z,9.63
2023-09-10T08:26:38.445Z,7.43
2023-09-10T08:29:40.705Z,8.48
2023-09-10T08:32:46.887Z,8.52
2023-09-10T08:35:50.512Z,7.97
2023-09-10T08:38:54.731Z,6.53
2023-09-10T08:42:07.072Z,7.47
2023-09-10T08:45:11.504Z,7.10
2023-09-10T08:48:15.745Z,6.90
2023-09-10T08:51:19.385Z,6.90
2023-09-10T08:54:21.717Z,8.57
2023-09-10T08:57:25.480Z,7.55
2023-09-10T09:00:29.723Z,8.18
2023-09-10T09:03:33.687Z,7.00
2023-09-10T09:06:38.471Z,9.40
2023-09-10T09:09:46.028Z,7.40
2023-09-10T09:12:50.817Z,7.45
2023-09-10T09:15:53.895Z,7.13
2023-09-10T09:18:56.613Z,6.35
2023-09-10T09:22:00.466Z,6.85
2023-09-10T09:25:04.446Z,7.27
2023-09-10T09:28:07.080Z,6.88
2023-09-10T09:31:11.458Z,6.85
2023-09-10T09:34:13.785Z,6.50
2023-09-10T09:37:20.538Z,7.57
2023-09-10T09:40:23.028Z,6.20
2023-09-10T09:43:25.506Z,6.80
2023-09-10T09:46:34.865Z,6.03
2023-09-10T09:49:46.659Z,6.65
2023-09-10T09:52:52.427Z,6.60
2023-09-10T09:56:04.375Z,5.70
2023-09-10T09:59:07.412Z,5.60
2023-09-10T10:02:15.768Z,6.07
2023-09-10T10:05:25.162Z,6.20
2023-09-10T10:08:30.453Z,5.97
2023-09-10T10:11:33.496Z,5.73
2023-09-10T10:14:43.215Z,6.13
2023-09-10T10:17:46.463Z,6.78
2023-09-10T10:20:51.032Z,6.95
2023-09-10T10:23:57.473Z,6.53
2023-09-10T10:27:02.284Z,5.50
2023-09-10T10:30:07.218Z,7.93
2023-09-10T10:33:13.088Z,5.60
2023-09-10T10:36:25.823Z,5.55
2023-09-10T10:39:42.885Z,5.95
2023-09-10T10:42:53.898Z,6.03
2023-09-10T10:45:58.393Z,5.80
2023-09-10T10:49:04.393Z,5.32
2023-09-10T10:52:10.462Z,5.63
2023-09-10T10:55:13.514Z,5.30
2023-09-10T10:58:16.125Z,6.20
2023-09-10T11:01:18.585Z,6.03
2023-09-10T11:04:21.046Z,4.95
2023-09-10T11:07:27.988Z,5.75
2023-09-10T11:10:30.175Z,5.10
2023-09-10T11:13:33.600Z,5.30
2023-09-10T11:16:36.719Z,4.68
2023-09-10T11:19:47.033Z,5.63
2023-09-10T11:23:08.595Z,5.32
2023-09-10T11:26:13.818Z,5.50
2023-09-10T11:29:20.264Z,4.97
2023-09-10T11:32:22.701Z,5.25
2023-09-10T11:35:25.230Z,4.93
2023-09-10T11:38:30.318Z,5.22
2023-09-10T11:41:33.451Z,4.90
2023-09-10T11:44:36.383Z,4.87
2023-09-10T11:47:46.587Z,5.25
2023-09-10T11:50:52.077Z,5.13
2023-09-10T11:53:54.626Z,5.00
2023-09-10T11:56:58.548Z,5.65
2023-09-10T12:00:01.252Z,4.80
2023-09-10T12:03:14.731Z,5.00
2023-09-10T12:06:17.070Z,5.00
2023-09-10T12:09:20.039Z,4.93
2023-09-10T12:12:26.352Z,4.57
2023-09-10T12:15:30.643Z,5.13
2023-09-10T12:18:33.336Z,4.60
2023-09-10T12:21:35.681Z,6.50
2023-09-10T12:24:39.738Z,4.88
2023-09-10T12:27:42.829Z,5.05
2023-09-10T12:30:45.206Z,4.80
2023-09-10T12:33:47.526Z,5.05
2023-09-10T12:36:52.909Z,6.07
2023-09-10T12:39:55.901Z,5.00
2023-09-10T12:42:58.145Z,5.70
2023-09-10T12:46:00.459Z,5.33
2023-09-10T12:49:05.710Z,5.95
2023-09-10T12:52:08.418Z,5.95
2023-09-10T12:55:10.706Z,4.97
2023-09-10T12:58:19.460Z,5.63
2023-09-10T13:01:26.577Z,7.13
2023-09-10T13:04:29.293Z,4.90
2023-09-10T13:07:31.555Z,5.47
2023-09-10T13:10:33.818Z,5.60
2023-09-10T13:13:36.100Z,5.13
2023-09-10T13:16:38.421Z,4.60
2023-09-10T13:19:40.745Z,6.05
2023-09-10T13:22:45.458Z,4.70
2023-09-10T13:25:48.097Z,6.00
2023-09-10T13:28:50.382Z,4.80
2023-09-10T13:31:53.190Z,4.63
2023-09-10T13:34:55.531Z,4.85
2023-09-10T13:37:57.841Z,5.15
2023-09-10T13:41:00.133Z,5.43
2023-09-10T13:44:03.536Z,4.60
2023-09-10T13:47:06.018Z,5.07
2023-09-10T13:50:08.991Z,5.47
2023-09-10T13:53:11.457Z,5.30
2023-09-10T13:56:13.835Z,4.80
2023-09-10T13:59:16.256Z,5.72
2023-09-10T14:02:18.632Z,4.40
2023-09-10T14:05:20.942Z,4.97
2023-09-10T14:08:23.290Z,4.93
2023-09-10T14:11:25.886Z,4.45
2023-09-10T14:14:28.202Z,5.15
2023-09-10T14:17:30.612Z,4.80
2023-09-10T14:20:33.081Z,4.68
2023-09-10T14:23:35.534Z,5.22
2023-09-10T14:26:37.872Z,5.05
2023-09-10T14:29:40.268Z,5.10
2023-09-10T14:32:42.999Z,4.60
2023-09-10T14:35:45.616Z,5.50
2023-09-10T14:38:47.917Z,5.30
2023-09-10T14:41:50.237Z,4.47
2023-09-10T14:44:52.484Z,6.13
2023-09-10T14:47:54.903Z,4.63
2023-09-10T14:50:57.191Z,6.88
2023-09-10T14:53:59.664Z,5.00
2023-09-10T14:57:02.753Z,5.18
2023-09-10T15:00:05.815Z,6.20
2023-09-10T15:03:08.827Z,4.57
2023-09-10T15:06:11.234Z,6.10
2023-09-10T15:09:13.638Z,5.32
2023-09-10T15:12:16.298Z,5.93
2023-09-10T15:15:18.628Z,6.28
2023-09-10T15:18:22.658Z,6.87
2023-09-10T15:21:25.196Z,6.15
2023-09-10T15:24:27.474Z,5.75
2023-09-10T15:27:29.993Z,4.70
2023-09-10T15:30:33.346Z,4.60
2023-09-10T15:33:35.640Z,4.50
2023-09-10T15:36:38.584Z,4.28
2023-09-10T15:39:40.820Z,6.13
2023-09-10T15:42:43.136Z,4.80
2023-09-10T15:45:45.429Z,4.85
2023-09-10T15:48:47.702Z,5.53
2023-09-10T15:51:50.505Z,5.45
2023-09-10T15:54:52.898Z,6.32
2023-09-10T15:57:55.264Z,5.05
2023-09-10T16:00:57.516Z,5.65
2023-09-10T16:03:59.873Z,5.57
2023-09-10T16:07:03.327Z,5.68
2023-09-10T16:10:06.782Z,9.00
2023-09-10T16:13:09.230Z,6.55
2023-09-10T16:16:11.688Z,7.22
2023-09-10T16:19:13.951Z,5.60
2023-09-10T16:22:19.709Z,5.85
2023-09-10T16:25:22.005Z,6.47
2023-09-10T16:28:24.331Z,5.50
2023-09-10T16:31:26.643Z,5.93
2023-09-10T16:34:29.371Z,7.40
2023-09-10T16:37:31.684Z,5.30
2023-09-10T16:40:33.942Z,5.55
2023-09-10T16:43:36.195Z,5.75
2023-09-10T16:46:38.584Z,6.20
2023-09-10T16:49:42.892Z,6.97
2023-09-10T16:52:45.144Z,6.25
2023-09-10T16:55:54.327Z,7.78
2023-09-10T16:58:59.661Z,7.13
2023-09-10T17:02:02.090Z,7.05
2023-09-10T17:05:04.708Z,7.33
2023-09-10T17:08:07.253Z,6.10
2023-09-10T17:11:09.707Z,5.70
2023-09-10T17:14:12.003Z,6.25
2023-09-10T17:17:14.403Z,7.00
2023-09-10T17:20:16.933Z,9.53
2023-09-10T17:23:19.286Z,6.78
2023-09-10T17:26:21.859Z,6.78
2023-09-10T17:29:24.260Z,6.82
2023-09-10T17:32:26.649Z,6.68
2023-09-10T17:35:29.170Z,6.50
2023-09-10T17:38:31.562Z,7.55
2023-09-10T17:41:33.939Z,7.10
2023-09-10T17:44:37.579Z,9.07
2023-09-10T17:47:40.678Z,7.70
2023-09-10T17:50:43.096Z,11.80
2023-09-10T17:53:46.374Z,7.70
2023-09-10T17:56:48.774Z,8.20
2023-09-10T17:59:51.400Z,7.65
2023-09-10T18:02:53.815Z,6.38
2023-09-10T18:05:56.184Z,6.50
2023-09-10T18:09:03.336Z,6.60
2023-09-10T18:12:06.032Z,7.38
2023-09-10T18:15:09.527Z,6.40
2023-09-10T18:18:11.833Z,6.13
2023-09-10T18:21:14.143Z,7.33
2023-09-10T18:24:16.655Z,6.25
2023-09-10T18:27:18.889Z,5.78
2023-09-10T18:30:21.161Z,6.97
2023-09-10T18:33:23.545Z,6.57
2023-09-10T18:36:25.904Z,6.43
2023-09-10T18:39:28.735Z,6.88
2023-09-10T18:42:31.081Z,5.93
2023-09-10T18:45:34.070Z,6.93
2023-09-10T18:48:36.346Z,7.60
2023-09-10T18:52:12.048Z,6.87
2023-09-10T18:55:15.149Z,5.93
2023-09-10T18:58:17.562Z,7.55
2023-09-10T19:01:20.386Z,7.32
2023-09-10T19:04:22.983Z,6.57
2023-09-10T19:07:25.367Z,7.77
2023-09-10T19:10:27.730Z,7.50
2023-09-10T19:13:29.986Z,7.18
2023-09-10T19:16:32.276Z,9.10
2023-09-10T19:19:34.859Z,7.30
2023-09-10T19:22:37.172Z,6.00
2023-09-10T19:25:39.670Z,7.25
2023-09-10T19:28:41.943Z,6.70
2023-09-10T19:31:44.322Z,6.55
2023-09-10T19:34:47.772Z,7.78
2023-09-10T19:37:53.726Z,7.20
2023-09-10T19:40:56.058Z,5.95
2023-09-10T19:44:00.163Z,7.03
2023-09-10T19:47:02.441Z,7.00
2023-09-10T19:50:05.034Z,6.60
2023-09-10T19:53:07.324Z,6.37
2023-09-10T19:56:14.027Z,6.93
2023-09-10T19:59:16.653Z,7.53
2023-09-10T20:02:18.960Z,6.75
2023-09-10T20:05:21.750Z,6.28
2023-09-10T20:08:24.932Z,7.57
2023-09-10T20:11:27.864Z,7.55
2023-09-10T20:14:32.841Z,7.00
2023-09-10T20:17:35.235Z,6.30
2023-09-10T20:20:38.446Z,6.45
2023-09-10T20:23:42.172Z,6.90
2023-09-10T20:26:44.768Z,6.35
2023-09-10T20:29:47.158Z,6.03
2023-09-10T20:32:49.483Z,8.70
2023-09-10T20:35:51.927Z,7.53
2023-09-10T20:38:54.244Z,7.10
2023-09-10T20:41:57.060Z,7.00
2023-09-10T20:44:59.330Z,6.43
2023-09-10T20:48:04.590Z,9.15
2023-09-10T20:51:08.475Z,6.57
2023-09-10T20:54:10.823Z,6.27
2023-09-10T20:57:13.113Z,7.47
2023-09-10T21:00:15.542Z,7.40
2023-09-10T21:03:29.028Z,7.95
2023-09-10T21:06:32.717Z,6.35
2023-09-10T21:09:35.112Z,6.17
2023-09-10T21:12:37.389Z,7.15
2023-09-10T21:15:39.680Z,6.32
2023-09-10T21:18:41.927Z,6.57
2023-09-10T21:21:44.206Z,7.65
2023-09-10T21:24:47.480Z,6.70
2023-09-10T21:27:49.799Z,7.20
2023-09-10T21:30:52.045Z,7.35
2023-09-10T21:33:54.430Z,7.50
2023-09-10T21:36:56.780Z,7.60
2023-09-10T21:39:59.022Z,7.90
2023-09-10T21:43:01.278Z,8.20
2023-09-10T21:46:08.446Z,8.57
2023-09-10T21:49:11.047Z,6.35
2023-09-10T21:52:14.611Z,7.50
2023-09-10T21:55:16.951Z,6.53
2023-09-10T21:58:19.241Z,7.13
2023-09-10T22:01:21.618Z,6.97
2023-09-10T22:04:24.634Z,6.65
2023-09-10T22:07:26.964Z,6.75
2023-09-10T22:10:29.283Z,6.00
2023-09-10T22:13:32.860Z,9.63
2023-09-10T22:16:36.048Z,7.82
2023-09-10T22:19:38.356Z,6.63
2023-09-10T22:22:40.726Z,9.52
2023-09-10T22:25:43.124Z,6.07
2023-09-10T22:28:47.002Z,7.43
2023-09-10T22:31:49.340Z,7.35
2023-09-10T22:34:51.680Z,5.95
2023-09-10T22:37:54.152Z,7.20
2023-09-10T22:40:56.478Z,8.63
2023-09-10T22:43:58.785Z,6.07
2023-09-10T22:47:01.060Z,7.63
2023-09-10T22:50:05.333Z,7.53
2023-09-10T22:53:07.640Z,7.18
2023-09-10T22:56:09.879Z,7.40
2023-09-10T22:59:12.180Z,6.65
2023-09-10T23:02:14.614Z,6.45
2023-09-10T23:05:17.101Z,7.35
2023-09-10T23:08:19.451Z,9.77
2023-09-10T23:11:21.773Z,9.60
2023-09-10T23:14:25.267Z,6.22
2023-09-10T23:17:27.672Z,9.63
2023-09-10T23:20:30.029Z,7.97
2023-09-10T23:23:32.425Z,7.50
2023-09-10T23:26:34.782Z,7.30
2023-09-10T23:29:37.153Z,7.00
2023-09-10T23:32:39.504Z,8.18
2023-09-10T23:35:41.943Z,7.38
2023-09-10T23:38:44.582Z,6.10
2023-09-10T23:41:47.138Z,6.73
2023-09-10T23:44:49.459Z,6.43
2023-09-10T23:47:51.873Z,6.35
2023-09-10T23:50:54.576Z,7.40
2023-09-10T23:53:56.826Z,7.85
2023-09-10T23:56:59.466Z,7.10
